West Valley Falls, New York
Current Conditions -  °F | °C
As of 6:54 AM on Sunday 25 Jan 2015 (Local Time) from KDDH Reporting Station
Overcast Overcast  
Wind Chill: 22°   Ceiling: 3800
Heat Index: 32°   Visibility: 10mi
Dew Point: 19°   Wind: 15mph
Humidity: 59%   Direction: 290°WNW
Pressure: 29.5"   Gusts: 21mph
Location:  42.8614°N, 73.5395°W
Report Text: KDDH 251154Z AUTO 29013G18KT 10SM BKN038 BKN046 OVC055 00/M07 A2950 RMK AO2 SLP997 60000 70009 T00001072 10006 21017 53024
Loading
Personal Weather Stations






























Interactive Weather Map New forecast layout! Learn more

10-Day Weather Forecast

Advertisements
Track Severe Weather on mobile